createdAt,value
2019-05-11T00:01:00.894Z,38.86
2019-05-11T00:03:29.665Z,38.96
2019-05-11T00:05:58.765Z,38.93
2019-05-11T00:08:26.725Z,38.93
2019-05-11T00:10:57.831Z,38.93
2019-05-11T00:13:28.057Z,38.92
2019-05-11T00:15:57.021Z,38.90
2019-05-11T00:18:26.651Z,38.86
2019-05-11T00:20:57.152Z,38.86
2019-05-11T00:23:27.417Z,38.83
2019-05-11T00:25:56.764Z,38.84
2019-05-11T00:28:26.614Z,38.87
2019-05-11T00:30:55.261Z,38.77
2019-05-11T00:33:24.649Z,38.77
2019-05-11T00:35:54.724Z,38.29
2019-05-11T00:38:24.086Z,38.29
2019-05-11T00:40:54.874Z,39.04
2019-05-11T00:43:25.710Z,39.00
2019-05-11T00:45:55.929Z,39.05
2019-05-11T00:48:25.788Z,38.97
2019-05-11T00:50:54.938Z,38.97
2019-05-11T00:53:26.285Z,38.91
2019-05-11T00:55:54.824Z,38.91
2019-05-11T00:58:24.229Z,38.75
2019-05-11T01:00:55.035Z,38.89
2019-05-11T01:03:24.302Z,38.83
2019-05-11T01:05:53.950Z,38.83
2019-05-11T01:08:22.836Z,39.01
2019-05-11T01:10:52.059Z,38.93
2019-05-11T01:13:22.840Z,38.93
2019-05-11T01:15:53.338Z,38.98
2019-05-11T01:18:22.489Z,38.98
2019-05-11T01:20:52.321Z,38.90
2019-05-11T01:23:20.348Z,38.96
2019-05-11T01:25:48.896Z,38.92
2019-05-11T01:28:18.367Z,38.88
2019-05-11T01:30:47.648Z,38.88
2019-05-11T01:33:16.595Z,38.85
2019-05-11T01:35:46.793Z,38.81
2019-05-11T01:38:16.034Z,38.81
2019-05-11T01:40:58.150Z,38.78
2019-05-11T01:43:16.032Z,38.78
2019-05-11T01:45:46.857Z,38.95
2019-05-11T01:48:16.206Z,38.95
2019-05-11T01:50:44.152Z,39.02
2019-05-11T01:53:34.009Z,39.02
2019-05-11T01:56:02.818Z,38.93
2019-05-11T01:58:31.381Z,38.86
2019-05-11T02:01:00.444Z,38.86
2019-05-11T02:03:29.663Z,38.77
2019-05-11T02:05:59.717Z,38.53
2019-05-11T02:10:29.782Z,38.77
2019-05-11T02:12:59.307Z,38.73
2019-05-11T02:15:29.689Z,38.73
2019-05-11T02:17:59.283Z,38.64
2019-05-11T02:20:29.869Z,38.71
2019-05-11T02:23:00.192Z,38.75
2019-05-11T02:25:31.305Z,38.75
2019-05-11T02:27:59.349Z,38.82
2019-05-11T02:30:28.507Z,38.87
2019-05-11T02:32:57.944Z,38.84
2019-05-11T02:35:28.748Z,38.83
2019-05-11T02:37:59.963Z,38.83
2019-05-11T02:40:30.839Z,39.02
2019-05-11T02:43:00.106Z,38.67
2019-05-11T02:45:49.721Z,38.98
2019-05-11T02:48:18.806Z,38.65
2019-05-11T02:50:49.049Z,38.64
2019-05-11T02:53:18.749Z,38.64
2019-05-11T02:55:47.283Z,38.66
2019-05-11T02:58:15.859Z,38.67
2019-05-11T03:00:45.480Z,38.76
2019-05-11T03:03:14.575Z,38.71
2019-05-11T03:05:43.716Z,38.73
2019-05-11T03:08:13.809Z,38.73
2019-05-11T03:13:55.521Z,38.58
2019-05-11T03:16:25.708Z,38.52
2019-05-11T03:18:55.004Z,38.62
2019-05-11T03:21:24.166Z,38.64
2019-05-11T03:23:54.632Z,38.59
2019-05-11T03:26:24.847Z,38.59
2019-05-11T03:28:53.219Z,38.63
2019-05-11T03:31:22.911Z,38.63
2019-05-11T03:33:51.944Z,38.60
2019-05-11T03:36:21.527Z,38.60
2019-05-11T03:38:51.839Z,38.60
2019-05-11T03:41:20.940Z,38.69
2019-05-11T03:43:49.544Z,38.50
2019-05-11T03:46:18.731Z,38.47
2019-05-11T03:48:48.609Z,38.51
2019-05-11T03:51:18.435Z,38.51
2019-05-11T03:53:47.474Z,38.44
2019-05-11T03:56:17.576Z,38.53
2019-05-11T03:58:47.002Z,38.54
2019-05-11T04:01:17.907Z,38.46
2019-05-11T04:03:46.024Z,38.49
2019-05-11T04:06:13.617Z,38.52
2019-05-11T04:10:49.828Z,38.50
2019-05-11T04:13:19.802Z,38.50
2019-05-11T04:15:49.535Z,38.56
2019-05-11T04:18:19.374Z,38.48
2019-05-11T04:20:48.893Z,38.46
2019-05-11T04:23:18.720Z,38.43
2019-05-11T04:25:47.865Z,38.43
2019-05-11T04:28:16.458Z,38.58
2019-05-11T04:31:52.620Z,38.42
2019-05-11T04:34:21.610Z,38.52
2019-05-11T04:36:49.680Z,38.52
2019-05-11T04:41:16.588Z,38.43
2019-05-11T04:43:45.511Z,38.42
2019-05-11T04:46:15.805Z,38.42
2019-05-11T04:48:44.709Z,38.21
2019-05-11T04:51:13.824Z,38.35
2019-05-11T04:53:42.453Z,38.36
2019-05-11T04:56:09.875Z,38.36
2019-05-11T04:58:37.882Z,38.34
2019-05-11T05:01:06.095Z,38.34
2019-05-11T05:03:40.684Z,38.40
2019-05-11T05:06:22.262Z,38.41
2019-05-11T05:08:37.975Z,38.41
2019-05-11T05:11:08.170Z,38.40
2019-05-11T05:13:39.028Z,38.40
2019-05-11T05:16:45.950Z,38.32
2019-05-11T05:19:15.462Z,38.32
2019-05-11T05:21:46.500Z,38.45
2019-05-11T05:24:15.559Z,38.24
2019-05-11T05:26:43.609Z,38.24
2019-05-11T05:29:11.674Z,38.42
2019-05-11T05:31:39.892Z,38.36
2019-05-11T05:34:08.098Z,38.36
2019-05-11T05:37:40.509Z,38.30
2019-05-11T05:40:09.265Z,38.28
2019-05-11T05:42:38.795Z,38.18
2019-05-11T05:45:08.027Z,38.39
2019-05-11T05:47:37.193Z,38.35
2019-05-11T05:50:06.690Z,38.35
2019-05-11T05:52:36.606Z,38.40
2019-05-11T05:55:06.611Z,38.62
2019-05-11T05:57:35.530Z,38.62
2019-05-11T06:00:04.797Z,38.41
2019-05-11T06:02:34.569Z,38.44
2019-05-11T06:05:03.008Z,38.44
2019-05-11T06:07:31.904Z,38.27
2019-05-11T06:11:35.980Z,38.57
2019-05-11T06:14:05.362Z,38.55
2019-05-11T06:19:08.611Z,38.48
2019-05-11T06:21:38.254Z,38.48
2019-05-11T06:24:09.035Z,38.56
2019-05-11T06:26:38.568Z,38.66
2019-05-11T06:29:06.756Z,38.66
2019-05-11T06:31:35.751Z,38.79
2019-05-11T06:34:04.768Z,38.79
2019-05-11T06:36:34.279Z,38.79
2019-05-11T06:39:08.214Z,38.79
2019-05-11T06:41:37.911Z,39.02
2019-05-11T06:44:08.339Z,38.91
2019-05-11T06:46:38.581Z,38.91
2019-05-11T06:49:08.712Z,38.98
2019-05-11T06:51:40.590Z,38.98
2019-05-11T06:54:10.005Z,38.96
2019-05-11T06:57:19.337Z,38.84
2019-05-11T07:00:04.567Z,38.95
2019-05-11T07:02:33.615Z,38.95
2019-05-11T07:05:04.592Z,39.21
2019-05-11T07:07:47.083Z,39.12
2019-05-11T07:10:05.971Z,38.87
2019-05-11T07:15:20.310Z,38.98
2019-05-11T07:17:50.861Z,38.99
2019-05-11T07:20:21.014Z,38.72
2019-05-11T07:22:49.726Z,38.95
2019-05-11T07:25:20.530Z,39.11
2019-05-11T07:27:51.621Z,39.35
2019-05-11T07:30:20.640Z,39.45
2019-05-11T07:32:48.685Z,39.45
2019-05-11T07:35:18.788Z,39.79
2019-05-11T07:37:48.024Z,39.76
2019-05-11T07:40:18.805Z,39.76
2019-05-11T07:42:48.513Z,39.52
2019-05-11T07:45:18.126Z,39.44
2019-05-11T07:47:48.594Z,39.36
2019-05-11T07:50:18.099Z,39.26
2019-05-11T07:52:48.633Z,39.26
2019-05-11T07:55:19.065Z,39.16
2019-05-11T07:57:50.954Z,39.26
2019-05-11T08:00:18.828Z,39.26
2019-05-11T08:02:48.105Z,39.45
2019-05-11T08:05:18.119Z,39.45
2019-05-11T08:07:48.159Z,39.57
2019-05-11T08:10:18.780Z,39.43
2019-05-11T08:12:48.505Z,39.37
2019-05-11T08:15:18.560Z,39.37
2019-05-11T08:17:48.734Z,38.97
2019-05-11T08:20:18.955Z,38.97
2019-05-11T08:22:49.033Z,39.03
2019-05-11T08:25:19.942Z,38.94
2019-05-11T08:27:50.888Z,38.94
2019-05-11T08:32:09.623Z,39.01
2019-05-11T08:34:39.796Z,38.58
2019-05-11T08:37:08.903Z,39.03
2019-05-11T08:39:39.602Z,38.73
2019-05-11T08:42:33.212Z,38.60
2019-05-11T08:45:16.043Z,38.35
2019-05-11T08:47:33.648Z,38.35
2019-05-11T08:50:02.672Z,37.52
2019-05-11T08:52:32.810Z,36.51
2019-05-11T08:55:29.125Z,36.78
2019-05-11T08:57:59.020Z,36.86
2019-05-11T09:00:28.643Z,36.93
2019-05-11T09:02:58.476Z,36.83
2019-05-11T09:05:28.107Z,36.83
2019-05-11T09:07:58.692Z,37.32
2019-05-11T09:10:28.396Z,36.73
2019-05-11T09:12:59.120Z,36.73
2019-05-11T09:15:36.475Z,36.18
2019-05-11T09:22:32.061Z,35.92
2019-05-11T09:25:02.825Z,35.79
2019-05-11T09:27:32.846Z,35.78
2019-05-11T09:30:01.731Z,35.93
2019-05-11T09:32:29.675Z,36.02
2019-05-11T09:34:59.604Z,35.86
2019-05-11T09:37:29.640Z,35.86
2019-05-11T09:40:00.087Z,35.54
2019-05-11T09:42:30.284Z,35.83
2019-05-11T09:44:59.797Z,35.42
2019-05-11T09:49:47.617Z,35.67
2019-05-11T09:52:12.622Z,35.46
2019-05-11T09:54:42.156Z,35.52
2019-05-11T09:57:10.620Z,35.52
2019-05-11T09:59:39.594Z,35.09
2019-05-11T10:02:08.739Z,34.75
2019-05-11T10:04:38.153Z,35.30
2019-05-11T10:07:09.067Z,34.75
2019-05-11T10:09:38.858Z,34.75
2019-05-11T10:13:28.986Z,33.30
2019-05-11T10:16:06.760Z,33.30
2019-05-11T10:18:30.332Z,32.77
2019-05-11T10:21:00.662Z,32.42
2019-05-11T10:23:30.776Z,32.74
2019-05-11T10:26:38.983Z,33.03
2019-05-11T10:29:38.416Z,32.99
2019-05-11T10:32:07.999Z,33.35
2019-05-11T10:34:38.619Z,32.98
2019-05-11T10:37:08.626Z,31.45
2019-05-11T10:39:38.973Z,32.61
2019-05-11T10:42:08.733Z,32.61
2019-05-11T10:44:38.537Z,32.21
2019-05-11T10:47:08.759Z,32.21
2019-05-11T10:49:38.076Z,31.82
2019-05-11T10:53:54.027Z,31.75
2019-05-11T10:56:24.066Z,31.98
2019-05-11T10:58:54.244Z,32.27
2019-05-11T11:01:24.959Z,32.27
2019-05-11T11:03:54.056Z,32.27
2019-05-11T11:06:24.062Z,32.12
2019-05-11T11:08:54.715Z,31.84
2019-05-11T11:11:27.517Z,32.31
2019-05-11T11:13:58.299Z,32.05
2019-05-11T11:16:36.990Z,32.05
2019-05-11T11:18:58.832Z,31.61
2019-05-11T11:21:28.798Z,31.50
2019-05-11T11:23:59.578Z,31.50
2019-05-11T11:26:28.683Z,31.62
2019-05-11T11:29:33.508Z,32.08
2019-05-11T11:32:02.502Z,32.08
2019-05-11T11:34:30.819Z,31.91
2019-05-11T11:36:59.882Z,32.18
2019-05-11T11:39:28.710Z,32.06
2019-05-11T11:41:58.802Z,32.06
2019-05-11T11:44:28.776Z,32.36
2019-05-11T11:46:59.205Z,32.36
2019-05-11T11:49:29.911Z,31.36
2019-05-11T11:51:58.133Z,32.00
2019-05-11T11:54:28.808Z,32.49
2019-05-11T11:56:59.134Z,31.94
2019-05-11T11:59:29.718Z,33.03
2019-05-11T12:02:00.678Z,33.03
2019-05-11T12:04:29.517Z,32.65
2019-05-11T12:06:58.887Z,32.87
2019-05-11T12:09:28.758Z,33.00
2019-05-11T12:11:59.736Z,32.90
2019-05-11T12:14:28.594Z,32.83
2019-05-11T12:17:06.979Z,32.52
2019-05-11T12:19:31.257Z,32.35
2019-05-11T12:22:01.717Z,32.36
2019-05-11T12:24:30.889Z,32.40
2019-05-11T12:27:02.778Z,32.40
2019-05-11T12:29:32.839Z,32.73
2019-05-11T12:32:04.869Z,31.93
2019-05-11T12:34:33.270Z,31.14
2019-05-11T12:37:01.984Z,30.92
2019-05-11T12:39:35.847Z,30.92
2019-05-11T12:44:54.541Z,30.66
2019-05-11T12:47:25.193Z,30.66
2019-05-11T12:49:52.460Z,30.85
2019-05-11T12:52:21.434Z,30.87
2019-05-11T12:54:50.648Z,31.04
2019-05-11T12:57:18.763Z,31.05
2019-05-11T12:59:48.794Z,29.87
2019-05-11T13:02:18.488Z,30.43
2019-05-11T13:04:47.726Z,30.53
2019-05-11T13:07:19.513Z,30.53
2019-05-11T13:09:48.505Z,30.47
2019-05-11T13:12:18.670Z,30.47
2019-05-11T13:14:48.894Z,30.21
2019-05-11T13:17:18.650Z,30.71
2019-05-11T13:19:47.985Z,30.26
2019-05-11T13:22:19.261Z,31.17
2019-05-11T13:24:48.126Z,30.77
2019-05-11T13:27:18.325Z,30.77
2019-05-11T13:29:48.746Z,31.52
2019-05-11T13:32:18.539Z,32.36
2019-05-11T13:34:48.034Z,35.12
2019-05-11T13:37:18.584Z,33.96
2019-05-11T13:39:48.780Z,33.96
2019-05-11T13:42:19.535Z,35.00
2019-05-11T13:44:48.798Z,35.00
2019-05-11T13:48:05.019Z,34.58
2019-05-11T13:50:34.094Z,34.69
2019-05-11T13:53:03.487Z,34.69
2019-05-11T13:55:32.113Z,35.41
2019-05-11T13:59:38.490Z,35.30
2019-05-11T14:02:10.648Z,35.30
2019-05-11T14:04:38.533Z,35.53
2019-05-11T14:07:08.058Z,34.44
2019-05-11T14:09:37.981Z,33.31
2019-05-11T14:12:07.719Z,32.21
2019-05-11T14:14:37.722Z,33.84
2019-05-11T14:17:08.247Z,33.21
2019-05-11T14:19:38.709Z,32.09
2019-05-11T14:22:09.199Z,32.09
2019-05-11T14:24:37.630Z,33.24
2019-05-11T14:27:08.520Z,33.76
2019-05-11T14:29:37.917Z,35.30
2019-05-11T14:32:06.275Z,35.30
2019-05-11T14:34:38.880Z,37.71
2019-05-11T14:37:08.801Z,37.41
2019-05-11T14:39:38.324Z,37.41
2019-05-11T14:42:07.822Z,37.30
2019-05-11T14:44:37.668Z,37.30
2019-05-11T14:47:08.374Z,37.32
2019-05-11T14:49:38.026Z,37.32
2019-05-11T14:52:08.424Z,37.30
2019-05-11T14:54:38.709Z,37.52
2019-05-11T14:57:08.099Z,37.36
2019-05-11T14:59:37.773Z,37.36
2019-05-11T15:03:51.105Z,37.37
2019-05-11T15:06:19.343Z,37.40
2019-05-11T15:08:48.899Z,37.20
2019-05-11T15:11:19.289Z,37.20
2019-05-11T15:13:49.030Z,37.06
2019-05-11T15:21:08.262Z,37.82
2019-05-11T15:23:37.853Z,37.82
2019-05-11T15:26:07.843Z,37.72
2019-05-11T15:28:37.824Z,37.70
2019-05-11T15:31:05.305Z,38.00
2019-05-11T15:36:09.434Z,37.75
2019-05-11T15:38:37.881Z,37.82
2019-05-11T15:41:08.337Z,37.88
2019-05-11T15:43:38.662Z,38.69
2019-05-11T15:46:06.308Z,38.32
2019-05-11T15:48:35.052Z,38.48
2019-05-11T15:51:03.426Z,38.42
2019-05-11T15:53:31.503Z,38.42
2019-05-11T15:55:59.909Z,38.00
2019-05-11T15:58:29.244Z,38.00
2019-05-11T16:00:58.784Z,37.80
2019-05-11T16:03:26.751Z,39.61
2019-05-11T16:05:58.240Z,40.29
2019-05-11T16:08:28.187Z,40.08
2019-05-11T16:10:57.830Z,40.48
2019-05-11T16:13:28.484Z,40.48
2019-05-11T16:16:01.387Z,40.67
2019-05-11T16:18:29.187Z,39.75
2019-05-11T16:20:58.305Z,39.48
2019-05-11T16:23:28.400Z,39.11
2019-05-11T16:25:58.097Z,39.11
2019-05-11T16:28:30.850Z,39.20
2019-05-11T16:30:59.958Z,39.20
2019-05-11T16:33:29.370Z,39.11
2019-05-11T16:36:00.848Z,38.55
2019-05-11T16:38:31.141Z,40.13
2019-05-11T16:41:00.140Z,39.92
2019-05-11T16:43:29.406Z,39.92
2019-05-11T16:46:00.400Z,40.02
2019-05-11T16:48:29.942Z,40.02
2019-05-11T16:51:03.084Z,39.47
2019-05-11T16:53:35.329Z,39.68
2019-05-11T16:56:05.391Z,39.68
2019-05-11T16:58:33.868Z,39.36
2019-05-11T17:03:04.803Z,39.31
2019-05-11T17:05:33.952Z,39.35
2019-05-11T17:08:02.226Z,39.52
2019-05-11T17:10:31.535Z,39.52
2019-05-11T17:13:01.560Z,39.51
2019-05-11T17:15:30.634Z,39.51
2019-05-11T17:17:59.124Z,39.51
2019-05-11T17:20:27.704Z,39.51
2019-05-11T17:22:56.036Z,39.59
2019-05-11T17:25:24.939Z,39.59
2019-05-11T17:27:53.982Z,39.70
2019-05-11T17:30:22.353Z,39.70
2019-05-11T17:32:51.190Z,39.67
2019-05-11T17:35:20.766Z,39.95
2019-05-11T17:37:49.260Z,39.90
2019-05-11T17:40:20.641Z,39.87
2019-05-11T17:42:48.397Z,39.86
2019-05-11T17:45:18.912Z,39.86
2019-05-11T17:47:47.729Z,39.95
2019-05-11T17:50:18.852Z,40.11
2019-05-11T17:53:34.469Z,39.96
2019-05-11T17:56:03.074Z,39.96
2019-05-11T17:59:02.799Z,40.19
2019-05-11T18:01:31.219Z,40.16
2019-05-11T18:04:00.506Z,40.08
2019-05-11T18:06:28.767Z,40.00
2019-05-11T18:08:58.444Z,40.11
2019-05-11T18:11:26.963Z,40.11
2019-05-11T18:13:55.894Z,40.06
2019-05-11T18:16:24.472Z,39.84
2019-05-11T18:20:06.623Z,40.05
2019-05-11T18:22:28.473Z,39.97
2019-05-11T18:24:58.172Z,39.97
2019-05-11T18:27:27.854Z,40.09
2019-05-11T18:29:58.075Z,40.14
2019-05-11T18:32:28.389Z,40.14
2019-05-11T18:34:58.928Z,40.12
2019-05-11T18:37:28.186Z,40.23
2019-05-11T18:39:58.523Z,40.12
2019-05-11T18:42:29.013Z,40.07
2019-05-11T18:44:58.100Z,40.07
2019-05-11T18:47:29.803Z,40.07
2019-05-11T18:49:59.104Z,40.25
2019-05-11T18:52:27.882Z,40.29
2019-05-11T18:54:57.847Z,40.29
2019-05-11T18:57:27.802Z,38.98
2019-05-11T18:59:58.730Z,38.98
2019-05-11T19:02:28.696Z,39.08
2019-05-11T19:04:58.135Z,38.17
2019-05-11T19:07:28.269Z,39.26
2019-05-11T19:09:57.818Z,39.12
2019-05-11T19:14:58.712Z,39.24
2019-05-11T19:17:29.061Z,39.10
2019-05-11T19:19:58.638Z,39.52
2019-05-11T19:22:28.877Z,39.52
2019-05-11T19:26:36.830Z,39.16
2019-05-11T19:29:04.781Z,39.16
2019-05-11T19:31:32.634Z,39.31
2019-05-11T19:34:00.614Z,39.37
2019-05-11T19:36:28.766Z,39.24
2019-05-11T19:38:58.436Z,39.17
2019-05-11T19:41:27.808Z,39.43
2019-05-11T19:43:57.707Z,39.43
2019-05-11T19:46:27.984Z,39.64
2019-05-11T19:48:57.960Z,39.40
2019-05-11T19:51:28.922Z,39.40
2019-05-11T19:53:58.163Z,39.63
2019-05-11T19:56:28.769Z,39.63
2019-05-11T19:58:57.957Z,40.05
2019-05-11T20:02:12.942Z,39.47
2019-05-11T20:04:41.149Z,39.26
2019-05-11T20:07:10.049Z,39.26
2019-05-11T20:09:38.783Z,39.25
2019-05-11T20:12:07.891Z,39.68
2019-05-11T20:14:37.807Z,39.74
2019-05-11T20:17:08.972Z,39.46
2019-05-11T20:19:38.478Z,39.50
2019-05-11T20:22:07.400Z,39.25
2019-05-11T20:24:35.651Z,39.39
2019-05-11T20:27:04.633Z,39.15
2019-05-11T20:29:33.202Z,39.15
2019-05-11T20:32:02.237Z,39.43
2019-05-11T20:34:29.920Z,39.70
2019-05-11T20:36:58.668Z,39.70
2019-05-11T20:39:28.720Z,40.17
2019-05-11T20:41:58.156Z,39.79
2019-05-11T20:44:28.674Z,39.21
2019-05-11T20:46:59.254Z,39.21
2019-05-11T20:49:28.253Z,39.29
2019-05-11T20:51:58.030Z,39.29
2019-05-11T20:54:28.178Z,39.10
2019-05-11T20:56:58.431Z,39.10
2019-05-11T20:59:29.191Z,38.95
2019-05-11T21:01:58.611Z,38.95
2019-05-11T21:04:28.207Z,38.96
2019-05-11T21:06:57.963Z,38.96
2019-05-11T21:09:28.764Z,39.39
2019-05-11T21:11:58.802Z,39.65
2019-05-11T21:14:28.862Z,39.65
2019-05-11T21:16:59.036Z,39.59
2019-05-11T21:19:28.242Z,39.57
2019-05-11T21:21:58.948Z,40.12
2019-05-11T21:24:28.215Z,40.12
2019-05-11T21:26:58.497Z,39.55
2019-05-11T21:29:28.194Z,39.55
2019-05-11T21:31:58.904Z,39.50
2019-05-11T21:34:27.945Z,39.50
2019-05-11T21:36:56.184Z,39.45
2019-05-11T21:39:24.877Z,39.50
2019-05-11T21:41:53.127Z,39.56
2019-05-11T21:46:35.401Z,39.42
2019-05-11T21:49:02.799Z,39.42
2019-05-11T21:51:31.530Z,39.34
2019-05-11T21:53:59.315Z,39.20
2019-05-11T21:56:28.803Z,39.20
2019-05-11T21:58:58.405Z,39.39
2019-05-11T22:01:28.088Z,39.39
2019-05-11T22:03:56.262Z,39.75
2019-05-11T22:06:24.840Z,39.75
2019-05-11T22:08:53.069Z,39.75
2019-05-11T22:11:22.108Z,39.49
2019-05-11T22:13:51.354Z,39.49
2019-05-11T22:16:19.543Z,39.65
2019-05-11T22:18:48.961Z,39.57
2019-05-11T22:21:18.729Z,39.56
2019-05-11T22:23:47.435Z,39.46
2019-05-11T22:26:17.978Z,39.46
2019-05-11T22:28:48.193Z,39.14
2019-05-11T22:31:18.343Z,39.49
2019-05-11T22:33:48.053Z,39.49
2019-05-11T22:36:16.047Z,39.40
2019-05-11T22:38:43.695Z,39.17
2019-05-11T22:41:13.167Z,39.38
2019-05-11T22:43:40.640Z,38.72
2019-05-11T22:46:09.182Z,39.19
2019-05-11T22:48:38.112Z,39.19
2019-05-11T22:51:08.016Z,39.41
2019-05-11T22:53:44.684Z,39.41
2019-05-11T22:56:06.481Z,38.69
2019-05-11T22:58:34.399Z,38.17
2019-05-11T23:01:02.625Z,38.26
2019-05-11T23:03:30.755Z,38.26
2019-05-11T23:05:59.650Z,38.46
2019-05-11T23:08:27.349Z,38.46
2019-05-11T23:10:56.641Z,38.43
2019-05-11T23:13:27.862Z,38.83
2019-05-11T23:18:31.175Z,38.75
2019-05-11T23:20:59.755Z,38.70
2019-05-11T23:23:28.829Z,38.70
2019-05-11T23:25:57.956Z,38.65
2019-05-11T23:28:28.964Z,38.69
2019-05-11T23:30:58.292Z,38.68
2019-05-11T23:35:38.267Z,38.77
2019-05-11T23:38:05.146Z,38.76
2019-05-11T23:43:58.428Z,38.94
2019-05-11T23:46:28.480Z,38.94
2019-05-11T23:51:10.484Z,38.62
2019-05-11T23:53:39.465Z,38.89
2019-05-11T23:58:39.110Z,38.67
